createdAt,value
2019-01-19T00:02:25.517Z,16.51
2019-01-19T00:05:36.536Z,16.50
2019-01-19T00:08:54.511Z,16.46
2019-01-19T00:12:05.652Z,16.46
2019-01-19T00:14:39.481Z,16.48
2019-01-19T00:17:26.980Z,16.51
2019-01-19T00:20:32.285Z,16.49
2019-01-19T00:23:29.707Z,16.49
2019-01-19T00:26:15.837Z,16.49
2019-01-19T00:29:02.644Z,16.49
2019-01-19T00:31:39.661Z,16.48
2019-01-19T00:34:36.182Z,16.51
2019-01-19T00:37:27.195Z,16.47
2019-01-19T00:40:39.426Z,16.48
2019-01-19T00:43:28.313Z,16.48
2019-01-19T00:46:46.200Z,16.48
2019-01-19T00:49:53.353Z,16.50
2019-01-19T00:52:46.433Z,16.47
2019-01-19T00:55:47.313Z,16.45
2019-01-19T00:58:56.819Z,16.47
2019-01-19T01:02:14.857Z,16.44
2019-01-19T01:04:49.740Z,16.44
2019-01-19T01:07:50.812Z,16.46
2019-01-19T01:10:48.782Z,16.48
2019-01-19T01:13:32.776Z,16.46
2019-01-19T01:16:25.128Z,16.46
2019-01-19T01:19:07.937Z,16.44
2019-01-19T01:22:27.108Z,16.44
2019-01-19T01:25:34.802Z,16.44
2019-01-19T01:28:45.832Z,16.39
2019-01-19T01:31:30.321Z,16.42
2019-01-19T01:34:26.187Z,16.40
2019-01-19T01:37:50.066Z,16.40
2019-01-19T01:40:57.702Z,16.34
2019-01-19T01:44:15.824Z,16.34
2019-01-19T01:47:15.639Z,16.41
2019-01-19T01:49:57.566Z,16.41
2019-01-19T01:53:04.548Z,16.40
2019-01-19T01:55:41.448Z,16.33
2019-01-19T01:59:14.957Z,16.36
2019-01-19T02:01:58.956Z,16.39
2019-01-19T02:05:17.239Z,16.39
2019-01-19T02:08:09.961Z,16.39
2019-01-19T02:11:11.419Z,16.33
2019-01-19T02:14:05.632Z,16.38
2019-01-19T02:17:20.288Z,16.38
2019-01-19T02:20:13.836Z,16.39
2019-01-19T02:23:19.201Z,16.40
2019-01-19T02:26:22.543Z,16.33
2019-01-19T02:29:22.381Z,16.35
2019-01-19T02:32:20.076Z,16.35
2019-01-19T02:35:20.791Z,16.35
2019-01-19T02:38:44.351Z,16.35
2019-01-19T02:41:35.267Z,16.34
2019-01-19T02:44:40.950Z,16.37
2019-01-19T02:47:37.857Z,16.40
2019-01-19T02:50:48.174Z,16.39
2019-01-19T02:53:40.482Z,16.33
2019-01-19T02:56:55.347Z,16.33
2019-01-19T02:59:48.464Z,16.33
2019-01-19T03:02:43.311Z,16.32
2019-01-19T03:05:46.912Z,16.32
2019-01-19T03:08:58.966Z,16.34
2019-01-19T03:12:10.005Z,16.34
2019-01-19T03:14:56.933Z,16.33
2019-01-19T03:18:07.864Z,16.32
2019-01-19T03:21:04.717Z,16.32
2019-01-19T03:24:12.995Z,16.31
2019-01-19T03:27:03.327Z,16.33
2019-01-19T03:29:42.296Z,16.30
2019-01-19T03:32:23.130Z,16.33
2019-01-19T03:35:19.117Z,16.33
2019-01-19T03:38:26.887Z,16.29
2019-01-19T03:41:33.635Z,16.29
2019-01-19T03:44:44.484Z,16.31
2019-01-19T03:47:50.515Z,16.29
2019-01-19T03:51:11.544Z,16.29
2019-01-19T03:53:54.098Z,16.29
2019-01-19T03:56:52.492Z,16.30
2019-01-19T03:59:43.833Z,16.26
2019-01-19T04:02:43.087Z,16.27
2019-01-19T04:05:52.359Z,16.24
2019-01-19T04:08:38.958Z,16.20
2019-01-19T04:11:35.729Z,16.18
2019-01-19T04:14:25.440Z,16.17
2019-01-19T04:17:46.982Z,16.16
2019-01-19T04:20:41.378Z,16.16
2019-01-19T04:23:08.585Z,16.13
2019-01-19T04:26:07.362Z,16.10
2019-01-19T04:28:34.780Z,16.13
2019-01-19T04:31:02.009Z,16.20
2019-01-19T04:33:29.290Z,16.20
2019-01-19T04:35:56.472Z,16.22
2019-01-19T04:38:23.683Z,16.22
2019-01-19T04:40:51.283Z,16.27
2019-01-19T04:43:18.429Z,16.30
2019-01-19T04:45:45.642Z,16.30
2019-01-19T04:48:13.041Z,16.24
2019-01-19T04:50:40.239Z,16.24
2019-01-19T04:53:07.583Z,16.23
2019-01-19T04:55:34.753Z,16.29
2019-01-19T04:58:01.922Z,16.31
2019-01-19T05:00:29.223Z,16.25
2019-01-19T05:02:56.385Z,16.30
2019-01-19T05:05:23.575Z,16.30
2019-01-19T05:07:50.900Z,16.28
2019-01-19T05:10:18.112Z,16.30
2019-01-19T05:12:45.313Z,16.28
2019-01-19T05:15:17.493Z,16.26
2019-01-19T05:17:45.080Z,16.26
2019-01-19T05:20:12.463Z,16.27
2019-01-19T05:22:39.699Z,16.30
2019-01-19T05:25:07.837Z,16.30
2019-01-19T05:27:35.056Z,16.25
2019-01-19T05:30:02.334Z,16.24
2019-01-19T05:32:29.630Z,16.25
2019-01-19T05:34:57.296Z,16.24
2019-01-19T05:37:24.546Z,16.23
2019-01-19T05:39:51.732Z,16.31
2019-01-19T05:42:18.886Z,16.31
2019-01-19T05:44:46.099Z,16.29
2019-01-19T05:47:13.258Z,16.30
2019-01-19T05:49:40.468Z,16.30
2019-01-19T05:52:07.644Z,16.32
2019-01-19T05:54:34.822Z,16.32
2019-01-19T05:57:02.028Z,16.31
2019-01-19T05:59:29.198Z,16.33
2019-01-19T06:01:56.846Z,16.32
2019-01-19T06:04:24.055Z,16.32
2019-01-19T06:06:51.212Z,16.36
2019-01-19T06:09:18.462Z,16.31
2019-01-19T06:11:45.668Z,16.26
2019-01-19T06:14:12.852Z,16.29
2019-01-19T06:16:40.022Z,16.31
2019-01-19T06:19:07.532Z,16.30
2019-01-19T06:21:39.642Z,16.32
2019-01-19T06:24:06.819Z,16.34
2019-01-19T06:26:34.037Z,16.32
2019-01-19T06:29:01.251Z,16.31
2019-01-19T06:31:28.428Z,16.33
2019-01-19T06:33:55.758Z,16.30
2019-01-19T06:36:22.918Z,16.28
2019-01-19T06:38:50.095Z,16.28
2019-01-19T06:41:17.356Z,16.26
2019-01-19T06:43:44.526Z,16.25
2019-01-19T06:46:11.723Z,16.25
2019-01-19T06:48:38.908Z,16.24
2019-01-19T06:51:06.154Z,16.31
2019-01-19T06:53:33.336Z,16.31
2019-01-19T06:56:00.558Z,16.27
2019-01-19T06:58:27.745Z,16.28
2019-01-19T07:00:54.978Z,16.28
2019-01-19T07:03:22.118Z,16.29
2019-01-19T07:05:49.518Z,16.29
2019-01-19T07:08:16.652Z,16.30
2019-01-19T07:10:43.913Z,16.29
2019-01-19T07:13:11.052Z,16.29
2019-01-19T07:15:38.231Z,16.29
2019-01-19T07:18:05.444Z,16.28
2019-01-19T07:20:32.622Z,16.32
2019-01-19T07:22:59.842Z,16.34
2019-01-19T07:25:27.093Z,16.30
2019-01-19T07:27:54.246Z,16.30
2019-01-19T07:30:21.399Z,16.28
2019-01-19T07:32:48.606Z,16.25
2019-01-19T07:35:16.038Z,16.25
2019-01-19T07:37:43.238Z,16.27
2019-01-19T07:40:12.795Z,16.29
2019-01-19T07:42:41.207Z,16.27
2019-01-19T07:45:08.826Z,16.27
2019-01-19T07:47:36.764Z,16.30
2019-01-19T07:50:04.867Z,16.29
2019-01-19T07:52:32.003Z,16.32
2019-01-19T07:54:59.237Z,16.28
2019-01-19T07:57:31.168Z,16.32
2019-01-19T07:59:55.547Z,16.36
2019-01-19T08:02:22.761Z,16.34
2019-01-19T08:04:49.935Z,16.33
2019-01-19T08:07:17.554Z,16.32
2019-01-19T08:09:45.057Z,16.38
2019-01-19T08:12:12.269Z,16.41
2019-01-19T08:14:39.438Z,16.38
2019-01-19T08:17:06.822Z,16.38
2019-01-19T08:19:33.983Z,16.36
2019-01-19T08:22:01.167Z,16.38
2019-01-19T08:24:28.478Z,16.38
2019-01-19T08:26:55.672Z,16.39
2019-01-19T08:29:22.832Z,16.41
2019-01-19T08:31:50.078Z,16.40
2019-01-19T08:34:17.248Z,16.39
2019-01-19T08:36:44.411Z,16.43
2019-01-19T08:39:11.619Z,16.48
2019-01-19T08:41:38.838Z,16.51
2019-01-19T08:44:06.670Z,16.51
2019-01-19T08:46:34.028Z,16.53
2019-01-19T08:49:01.225Z,16.53
2019-01-19T08:51:28.440Z,16.52
2019-01-19T08:53:55.655Z,16.51
2019-01-19T08:56:22.919Z,16.51
2019-01-19T08:58:50.115Z,16.49
2019-01-19T09:01:17.301Z,16.52
2019-01-19T09:03:44.651Z,16.56
2019-01-19T09:06:11.862Z,16.59
2019-01-19T09:08:39.025Z,16.59
2019-01-19T09:11:06.289Z,16.56
2019-01-19T09:13:33.527Z,16.56
2019-01-19T09:16:12.171Z,16.59
2019-01-19T09:18:39.363Z,16.59
2019-01-19T09:21:06.516Z,16.61
2019-01-19T09:23:38.727Z,16.62
2019-01-19T09:26:05.917Z,16.60
2019-01-19T09:28:33.097Z,16.63
2019-01-19T09:31:00.345Z,16.68
2019-01-19T09:33:27.507Z,16.68
2019-01-19T09:35:54.704Z,16.73
2019-01-19T09:38:21.955Z,16.80
2019-01-19T09:40:49.122Z,16.78
2019-01-19T09:43:16.339Z,16.73
2019-01-19T09:45:43.550Z,16.83
2019-01-19T09:48:10.720Z,16.83
2019-01-19T09:50:39.163Z,16.88
2019-01-19T09:53:06.450Z,16.85
2019-01-19T09:55:33.642Z,16.85
2019-01-19T09:58:00.882Z,16.82
2019-01-19T10:00:35.491Z,16.82
2019-01-19T10:02:57.204Z,16.91
2019-01-19T10:05:24.448Z,16.85
2019-01-19T10:07:51.678Z,16.85
2019-01-19T10:10:18.884Z,16.95
2019-01-19T10:12:46.121Z,16.95
2019-01-19T10:15:14.433Z,16.94
2019-01-19T10:17:41.600Z,16.97
2019-01-19T10:20:11.832Z,17.04
2019-01-19T10:22:39.049Z,17.04
2019-01-19T10:25:07.771Z,17.05
2019-01-19T10:27:37.548Z,17.08
2019-01-19T10:30:06.720Z,17.13
2019-01-19T10:32:33.970Z,17.20
2019-01-19T10:35:01.241Z,17.22
2019-01-19T10:37:28.455Z,17.25
2019-01-19T10:39:55.681Z,17.24
2019-01-19T10:42:22.884Z,17.21
2019-01-19T10:44:50.180Z,17.21
2019-01-19T10:47:17.338Z,17.35
2019-01-19T10:49:44.510Z,17.34
2019-01-19T10:52:11.697Z,17.34
2019-01-19T10:54:38.913Z,17.34
2019-01-19T10:57:06.058Z,17.35
2019-01-19T10:59:33.411Z,17.39
2019-01-19T11:02:00.627Z,17.39
2019-01-19T11:04:27.796Z,17.42
2019-01-19T11:06:54.964Z,17.48
2019-01-19T11:09:22.220Z,17.51
2019-01-19T11:11:49.470Z,17.53
2019-01-19T11:14:16.649Z,17.53
2019-01-19T11:16:43.883Z,17.55
2019-01-19T11:19:11.075Z,17.55
2019-01-19T11:21:38.298Z,17.57
2019-01-19T11:24:05.496Z,17.55
2019-01-19T11:26:32.719Z,17.55
2019-01-19T11:28:59.915Z,17.56
2019-01-19T11:31:27.123Z,17.54
2019-01-19T11:33:54.333Z,17.54
2019-01-19T11:36:21.584Z,17.59
2019-01-19T11:38:48.757Z,17.59
2019-01-19T11:41:15.969Z,17.58
2019-01-19T11:43:43.201Z,17.65
2019-01-19T11:46:10.371Z,17.65
2019-01-19T11:48:37.562Z,17.70
2019-01-19T11:51:04.774Z,17.69
2019-01-19T11:53:31.970Z,17.65
2019-01-19T11:55:59.279Z,17.63
2019-01-19T11:58:26.450Z,17.62
2019-01-19T12:00:53.651Z,17.65
2019-01-19T12:03:20.844Z,17.68
2019-01-19T12:05:48.390Z,17.62
2019-01-19T12:08:19.662Z,17.63
2019-01-19T12:10:44.666Z,17.61
2019-01-19T12:13:11.860Z,17.67
2019-01-19T12:15:39.068Z,17.66
2019-01-19T12:18:07.150Z,17.66
2019-01-19T12:20:36.920Z,17.66
2019-01-19T12:23:04.201Z,17.64
2019-01-19T12:25:31.381Z,17.65
2019-01-19T12:27:58.573Z,17.65
2019-01-19T12:30:27.740Z,17.61
2019-01-19T12:32:54.980Z,17.61
2019-01-19T12:35:22.179Z,17.64
2019-01-19T12:37:49.414Z,17.66
2019-01-19T12:40:18.312Z,17.66
2019-01-19T12:42:46.870Z,17.64
2019-01-19T12:45:17.444Z,17.68
2019-01-19T12:47:44.616Z,17.68
2019-01-19T12:50:17.618Z,17.74
2019-01-19T12:52:44.838Z,17.83
2019-01-19T12:55:12.205Z,17.83
2019-01-19T12:57:39.402Z,17.86
2019-01-19T13:00:08.929Z,17.93
2019-01-19T13:02:36.107Z,17.98
2019-01-19T13:05:05.004Z,17.98
2019-01-19T13:07:32.314Z,18.05
2019-01-19T13:10:08.238Z,18.13
2019-01-19T13:12:54.565Z,18.09
2019-01-19T13:16:16.060Z,18.09
2019-01-19T13:19:20.430Z,18.18
2019-01-19T13:22:41.387Z,18.21
2019-01-19T13:25:42.544Z,18.25
2019-01-19T13:28:54.702Z,18.32
2019-01-19T13:31:56.982Z,18.34
2019-01-19T13:35:20.043Z,18.37
2019-01-19T13:38:47.412Z,18.43
2019-01-19T13:41:49.248Z,18.47
2019-01-19T13:44:53.445Z,18.62
2019-01-19T13:48:04.306Z,18.70
2019-01-19T13:51:22.342Z,18.73
2019-01-19T13:54:49.680Z,18.79
2019-01-19T13:57:47.022Z,18.81
2019-01-19T14:01:09.405Z,18.79
2019-01-19T14:04:33.522Z,18.78
2019-01-19T14:07:34.499Z,18.75
2019-01-19T14:10:37.181Z,18.79
2019-01-19T14:13:45.448Z,18.79
2019-01-19T14:16:50.505Z,18.83
2019-01-19T14:19:50.354Z,18.80
2019-01-19T14:22:56.210Z,18.82
2019-01-19T14:25:53.145Z,18.80
2019-01-19T14:29:14.053Z,18.80
2019-01-19T14:32:38.090Z,18.83
2019-01-19T14:36:02.005Z,18.83
2019-01-19T14:39:16.609Z,18.80
2019-01-19T14:42:41.117Z,18.74
2019-01-19T14:45:34.579Z,18.80
2019-01-19T14:48:22.621Z,18.78
2019-01-19T14:51:31.614Z,18.75
2019-01-19T14:54:30.528Z,18.69
2019-01-19T14:57:48.691Z,18.65
2019-01-19T15:00:46.242Z,18.60
2019-01-19T15:03:26.542Z,18.62
2019-01-19T15:06:27.319Z,18.69
2019-01-19T15:09:12.265Z,18.70
2019-01-19T15:12:26.899Z,18.67
2019-01-19T15:15:32.905Z,18.63
2019-01-19T15:18:39.606Z,18.60
2019-01-19T15:21:44.345Z,18.59
2019-01-19T15:24:40.266Z,18.51
2019-01-19T15:27:58.107Z,18.41
2019-01-19T15:30:53.719Z,18.35
2019-01-19T15:33:52.106Z,18.29
2019-01-19T15:36:54.548Z,18.24
2019-01-19T15:39:44.202Z,18.17
2019-01-19T15:42:59.478Z,18.14
2019-01-19T15:45:54.497Z,18.10
2019-01-19T15:49:06.669Z,18.04
2019-01-19T15:52:27.602Z,18.01
2019-01-19T15:55:17.176Z,17.93
2019-01-19T15:58:23.405Z,17.89
2019-01-19T16:01:32.285Z,17.89
2019-01-19T16:04:37.158Z,17.82
2019-01-19T16:07:49.210Z,17.82
2019-01-19T16:10:45.504Z,17.77
2019-01-19T16:13:36.573Z,17.72
2019-01-19T16:16:49.442Z,17.72
2019-01-19T16:19:51.133Z,17.59
2019-01-19T16:22:49.877Z,17.61
2019-01-19T16:25:49.659Z,17.61
2019-01-19T16:28:58.397Z,17.59
2019-01-19T16:32:07.912Z,17.55
2019-01-19T16:35:02.679Z,17.51
2019-01-19T16:38:00.783Z,17.49
2019-01-19T16:41:04.152Z,17.47
2019-01-19T16:44:02.449Z,17.47
2019-01-19T16:47:06.168Z,17.42
2019-01-19T16:50:33.312Z,17.45
2019-01-19T16:53:25.684Z,17.37
2019-01-19T16:56:30.051Z,17.38
2019-01-19T16:59:35.403Z,17.37
2019-01-19T17:02:39.253Z,17.37
2019-01-19T17:05:50.718Z,17.30
2019-01-19T17:08:40.345Z,17.30
2019-01-19T17:11:35.816Z,17.24
2019-01-19T17:14:50.186Z,17.24
2019-01-19T17:18:08.398Z,17.27
2019-01-19T17:21:47.725Z,17.27
2019-01-19T17:24:50.808Z,17.22
2019-01-19T17:27:45.663Z,17.22
2019-01-19T17:30:34.755Z,17.19
2019-01-19T17:33:40.994Z,17.19
2019-01-19T17:37:11.154Z,17.18
2019-01-19T17:40:29.318Z,17.19
2019-01-19T17:43:43.466Z,17.19
2019-01-19T17:46:52.735Z,17.20
2019-01-19T17:50:10.785Z,17.19
2019-01-19T17:53:12.991Z,17.19
2019-01-19T17:56:23.790Z,17.14
2019-01-19T17:59:54.243Z,17.14
2019-01-19T18:03:04.971Z,17.13
2019-01-19T18:06:16.386Z,17.11
2019-01-19T18:09:05.373Z,17.03
2019-01-19T18:12:03.990Z,17.03
2019-01-19T18:15:37.506Z,17.06
2019-01-19T18:18:46.124Z,17.06
2019-01-19T18:21:44.429Z,17.06
2019-01-19T18:24:30.893Z,17.01
2019-01-19T18:27:08.478Z,17.01
2019-01-19T18:30:06.796Z,17.03
2019-01-19T18:32:58.483Z,17.03
2019-01-19T18:35:47.430Z,17.02
2019-01-19T18:38:22.354Z,17.05
2019-01-19T18:41:31.199Z,17.05
2019-01-19T18:44:45.287Z,17.05
2019-01-19T18:47:28.694Z,17.02
2019-01-19T18:50:32.473Z,17.03
2019-01-19T18:53:44.746Z,17.04
2019-01-19T18:56:41.276Z,17.06
2019-01-19T18:59:22.083Z,17.06
2019-01-19T19:02:36.631Z,17.02
2019-01-19T19:05:58.028Z,17.00
2019-01-19T19:09:09.308Z,16.97
2019-01-19T19:12:03.309Z,17.01
2019-01-19T19:15:17.171Z,16.94
2019-01-19T19:18:34.389Z,16.94
2019-01-19T19:21:35.669Z,16.93
2019-01-19T19:24:14.787Z,16.95
2019-01-19T19:27:23.858Z,16.97
2019-01-19T19:30:19.801Z,16.97
2019-01-19T19:33:01.758Z,16.98
2019-01-19T19:36:28.803Z,16.96
2019-01-19T19:39:39.594Z,16.91
2019-01-19T19:42:28.277Z,16.91
2019-01-19T19:45:33.354Z,16.94
2019-01-19T19:48:39.251Z,16.90
2019-01-19T19:51:35.271Z,16.90
2019-01-19T19:54:02.472Z,16.86
2019-01-19T19:56:28.575Z,16.86
2019-01-19T19:58:55.880Z,16.89
2019-01-19T20:01:23.034Z,16.87
2019-01-19T20:03:50.201Z,16.93
2019-01-19T20:06:17.426Z,16.93
2019-01-19T20:08:44.657Z,16.89
2019-01-19T20:11:11.865Z,16.87
2019-01-19T20:13:39.052Z,16.88
2019-01-19T20:16:06.270Z,16.88
2019-01-19T20:18:33.443Z,16.88
2019-01-19T20:21:00.762Z,16.83
2019-01-19T20:23:27.954Z,16.84
2019-01-19T20:25:55.123Z,16.84
2019-01-19T20:28:22.334Z,16.80
2019-01-19T20:30:49.490Z,16.82
2019-01-19T20:33:16.707Z,16.86
2019-01-19T20:35:43.872Z,16.83
2019-01-19T20:38:11.134Z,16.85
2019-01-19T20:40:38.298Z,16.81
2019-01-19T20:43:05.480Z,16.84
2019-01-19T20:45:32.779Z,16.83
2019-01-19T20:47:59.927Z,16.81
2019-01-19T20:50:27.123Z,16.76
2019-01-19T20:52:54.287Z,16.76
2019-01-19T20:55:21.504Z,16.76
2019-01-19T20:57:48.677Z,16.73
2019-01-19T21:00:16.563Z,16.76
2019-01-19T21:02:43.745Z,16.76
2019-01-19T21:05:10.892Z,16.74
2019-01-19T21:07:38.192Z,16.73
2019-01-19T21:10:05.423Z,16.71
2019-01-19T21:12:32.625Z,16.70
2019-01-19T21:14:59.846Z,16.70
2019-01-19T21:17:27.045Z,16.66
2019-01-19T21:19:54.364Z,16.67
2019-01-19T21:22:21.541Z,16.67
2019-01-19T21:24:48.728Z,16.64
2019-01-19T21:27:15.907Z,16.64
2019-01-19T21:29:43.085Z,16.68
2019-01-19T21:32:10.296Z,16.65
2019-01-19T21:34:37.516Z,16.66
2019-01-19T21:37:04.848Z,16.63
2019-01-19T21:39:32.013Z,16.63
2019-01-19T21:41:59.212Z,16.62
2019-01-19T21:44:26.500Z,16.67
2019-01-19T21:46:53.648Z,16.68
2019-01-19T21:49:20.837Z,16.64
2019-01-19T21:51:48.041Z,16.64
2019-01-19T21:54:15.242Z,16.62
2019-01-19T21:56:42.438Z,16.63
2019-01-19T21:59:09.637Z,16.60
2019-01-19T22:01:36.814Z,16.57
2019-01-19T22:04:03.978Z,16.56
2019-01-19T22:06:31.129Z,16.58
2019-01-19T22:08:58.343Z,16.55
2019-01-19T22:11:25.555Z,16.51
2019-01-19T22:13:52.855Z,16.52
2019-01-19T22:16:20.029Z,16.52
2019-01-19T22:18:47.184Z,16.51
2019-01-19T22:21:14.361Z,16.53
2019-01-19T22:23:41.533Z,16.50
2019-01-19T22:26:10.707Z,16.45
2019-01-19T22:28:37.939Z,16.44
2019-01-19T22:31:05.136Z,16.48
2019-01-19T22:33:32.298Z,16.46
2019-01-19T22:35:59.598Z,16.40
2019-01-19T22:38:26.799Z,16.44
2019-01-19T22:40:54.001Z,16.47
2019-01-19T22:43:26.604Z,16.45
2019-01-19T22:45:53.854Z,16.42
2019-01-19T22:48:21.080Z,16.41
2019-01-19T22:50:48.243Z,16.41
2019-01-19T22:53:15.420Z,16.41
2019-01-19T22:55:42.623Z,16.39
2019-01-19T22:58:09.828Z,16.34
2019-01-19T23:01:04.512Z,16.38
2019-01-19T23:03:34.127Z,16.36
2019-01-19T23:06:01.276Z,16.39
2019-01-19T23:08:28.472Z,16.37
2019-01-19T23:11:01.128Z,16.37
2019-01-19T23:13:24.887Z,16.36
2019-01-19T23:15:52.052Z,16.36
2019-01-19T23:18:19.204Z,16.34
2019-01-19T23:20:46.452Z,16.33
2019-01-19T23:23:13.681Z,16.37
2019-01-19T23:25:40.877Z,16.35
2019-01-19T23:28:08.084Z,16.35
2019-01-19T23:30:35.293Z,16.35
2019-01-19T23:33:02.512Z,16.37
2019-01-19T23:35:29.691Z,16.32
2019-01-19T23:37:56.991Z,16.32
2019-01-19T23:40:24.155Z,16.32
2019-01-19T23:42:51.337Z,16.33
2019-01-19T23:45:18.549Z,16.30
2019-01-19T23:47:45.742Z,16.32
2019-01-19T23:50:12.951Z,16.29
2019-01-19T23:52:40.094Z,16.31
2019-01-19T23:55:07.333Z,16.29
2019-01-19T23:57:34.510Z,16.26
